Megah Delapan — VRGA4 — position and weather

sailwx.info

Track history (hours):
 
Tides and Currents Weather Stations Pressure Air Temp Water Temp Dewpoint Dewpoint Depression Visibility Wind Speed Wind Dir Waves Ship Positions

Megah Delapan

Last reported at 2017-Apr-07 02:18 UTC. Time now 2017-Apr-24 07:24 UTC.
Position N 01°14' E 104°01'.
Warning: this ship's position is 17 days out of date.

Length 120 m; draft 7.6 m.

Type: Cargo ship. MMSI: 477639100.

Date/timePositionNaut miles runAvg speedWind from/ knotsBaromVisibWave heightAir tempDewpointWater temp
2017-Apr-07 02:18N 01°14' E 104°01'514.1
2017-Apr-07 01:57N 01°13' E 103°56'613.9
2017-Apr-07 01:30N 01°11' E 103°50'713.5
2017-Apr-07 01:00N 01°07' E 103°45'713.3
2017-Apr-07 00:30N 01°03' E 103°40'613.0
2017-Apr-07 00:00N 01°06' E 103°34'713.2
2017-Apr-06 23:30N 01°09' E 103°28'713.1
2017-Apr-06 23:00N 01°13' E 103°23'6613.2
2017-Apr-06 18:00N 01°48' E 102°27'713.2
2017-Apr-06 17:27N 01°52' E 102°20'4 0.1
2017-Apr-05 14:49N 01°55' E 102°20'1113.0
2017-Apr-05 14:00N 01°51' E 102°30'612.9
2017-Apr-05 13:30N 01°48' E 102°36'812.9
2017-Apr-05 12:54N 01°45' E 102°43'4712.3
2017-Apr-05 09:02N 01°18' E 103°22'212.6
2017-Apr-05 08:54N 01°17' E 103°23'512.3
2017-Apr-05 08:30N 01°14' E 103°27'612.7
2017-Apr-05 08:00N 01°12' E 103°33'611.2
2017-Apr-05 07:30N 01°12' E 103°39'4 8.7
2017-Apr-05 07:00N 01°14' E 103°42'3 7.0
2017-Apr-05 06:30N 01°18' E 103°44'1 2.0
2017-Apr-05 05:58N 01°19' E 103°43'0 0.0
2017-Apr-05 05:28N 01°19' E 103°43'0 0.0
2017-Apr-05 04:58N 01°19' E 103°43'0 0.0
2017-Apr-05 04:28N 01°18' E 103°43'0 0.0
2017-Apr-05 03:58N 01°19' E 103°43'0 0.0
2017-Apr-05 03:28N 01°19' E 103°43'0 0.0
2017-Apr-05 02:58N 01°19' E 103°43'0 0.0
2017-Apr-05 02:28N 01°19' E 103°43'0 0.0
2017-Apr-05 01:58N 01°19' E 103°43'0 0.0
2017-Apr-05 01:28N 01°19' E 103°43'0 0.0
2017-Apr-05 00:58N 01°19' E 103°43'0 0.0
2017-Apr-05 00:28N 01°19' E 103°43'0 0.0
2017-Apr-04 23:58N 01°19' E 103°43'0 0.0
2017-Apr-04 23:28N 01°19' E 103°43'0 0.0
2017-Apr-04 22:58N 01°19' E 103°43'0 0.0
2017-Apr-04 22:28N 01°19' E 103°43'0 0.0
2017-Apr-04 21:55N 01°19' E 103°43'0 0.0
2017-Apr-04 21:28N 01°19' E 103°43'0 0.0
2017-Apr-04 20:58N 01°19' E 103°43'0 0.0
2017-Apr-04 20:25N 01°19' E 103°43'0 0.0
2017-Apr-04 19:55N 01°19' E 103°43'0 0.0
2017-Apr-04 19:28N 01°19' E 103°43'0 0.0
2017-Apr-04 18:58N 01°19' E 103°43'0 0.0
2017-Apr-04 18:28N 01°19' E 103°43'0 0.0
2017-Apr-04 17:58N 01°19' E 103°43'0 0.0
2017-Apr-04 17:28N 01°19' E 103°43'0 0.0
2017-Apr-04 16:58N 01°19' E 103°43'0 0.0
2017-Apr-04 16:25N 01°19' E 103°43'0 0.0
2017-Apr-04 15:58N 01°19' E 103°43'0 0.0
2017-Apr-04 15:28N 01°19' E 103°43'0 0.0
2017-Apr-04 14:58N 01°19' E 103°43'0 0.0
2017-Apr-04 14:28N 01°19' E 103°43'0 0.0
2017-Apr-04 13:28N 01°19' E 103°43'0 0.0
2017-Apr-04 12:58N 01°19' E 103°43'0 0.0
2017-Apr-04 12:28N 01°19' E 103°43'0 0.0
2017-Apr-04 11:58N 01°19' E 103°43'0 0.0
2017-Apr-04 11:28N 01°19' E 103°43'0 0.0
2017-Apr-04 10:58N 01°19' E 103°43'0 0.0
2017-Apr-04 10:28N 01°19' E 103°43'0 0.0
2017-Apr-04 09:58N 01°19' E 103°43'0 0.0
2017-Apr-04 09:28N 01°19' E 103°43'0 0.0
2017-Apr-04 08:58N 01°19' E 103°43'0 0.0
2017-Apr-04 08:28N 01°19' E 103°43'0 0.1
2017-Apr-04 08:00N 01°18' E 103°43'1 2.2
2017-Apr-04 07:30N 01°18' E 103°44'3 6.5
2017-Apr-04 07:00N 01°16' E 103°46'5 9.7
2017-Apr-04 06:30N 01°12' E 103°50'5 9.3
2017-Apr-04 06:00N 01°14' E 103°54'1 1.5
2017-Apr-04 05:30N 01°14' E 103°55'2 3.4
2017-Apr-04 05:00N 01°14' E 103°57'  
Track history (hours):
 
Tides and Currents Weather Stations Pressure Air Temp Water Temp Dewpoint Dewpoint Depression Visibility Wind Speed Wind Dir Waves Ship Positions

Megah Delapan

Last reported at 2017-Apr-07 02:18 UTC. Time now 2017-Apr-24 07:24 UTC.
Position N 01°14' E 104°01'.
Warning: this ship's position is 17 days out of date.

Length 120 m; draft 7.6 m.

Type: Cargo ship. MMSI: 477639100.

Date/timePositionNaut miles runAvg speedWind from/ knotsBaromVisibWave heightAir tempDewpointWater temp
2017-Apr-07 02:18N 01°14' E 104°01'514.1
2017-Apr-07 01:57N 01°13' E 103°56'613.9
2017-Apr-07 01:30N 01°11' E 103°50'713.5
2017-Apr-07 01:00N 01°07' E 103°45'713.3
2017-Apr-07 00:30N 01°03' E 103°40'613.0
2017-Apr-07 00:00N 01°06' E 103°34'713.2
2017-Apr-06 23:30N 01°09' E 103°28'713.1
2017-Apr-06 23:00N 01°13' E 103°23'6613.2
2017-Apr-06 18:00N 01°48' E 102°27'713.2
2017-Apr-06 17:27N 01°52' E 102°20'4 0.1
2017-Apr-05 14:49N 01°55' E 102°20'1113.0
2017-Apr-05 14:00N 01°51' E 102°30'612.9
2017-Apr-05 13:30N 01°48' E 102°36'812.9
2017-Apr-05 12:54N 01°45' E 102°43'4712.3
2017-Apr-05 09:02N 01°18' E 103°22'212.6
2017-Apr-05 08:54N 01°17' E 103°23'512.3
2017-Apr-05 08:30N 01°14' E 103°27'612.7
2017-Apr-05 08:00N 01°12' E 103°33'611.2
2017-Apr-05 07:30N 01°12' E 103°39'4 8.7
2017-Apr-05 07:00N 01°14' E 103°42'3 7.0
2017-Apr-05 06:30N 01°18' E 103°44'1 2.0
2017-Apr-05 05:58N 01°19' E 103°43'0 0.0
2017-Apr-05 05:28N 01°19' E 103°43'0 0.0
2017-Apr-05 04:58N 01°19' E 103°43'0 0.0
2017-Apr-05 04:28N 01°18' E 103°43'0 0.0
2017-Apr-05 03:58N 01°19' E 103°43'0 0.0
2017-Apr-05 03:28N 01°19' E 103°43'0 0.0
2017-Apr-05 02:58N 01°19' E 103°43'0 0.0
2017-Apr-05 02:28N 01°19' E 103°43'0 0.0
2017-Apr-05 01:58N 01°19' E 103°43'0 0.0
2017-Apr-05 01:28N 01°19' E 103°43'0 0.0
2017-Apr-05 00:58N 01°19' E 103°43'0 0.0
2017-Apr-05 00:28N 01°19' E 103°43'0 0.0
2017-Apr-04 23:58N 01°19' E 103°43'0 0.0
2017-Apr-04 23:28N 01°19' E 103°43'0 0.0
2017-Apr-04 22:58N 01°19' E 103°43'0 0.0
2017-Apr-04 22:28N 01°19' E 103°43'0 0.0
2017-Apr-04 21:55N 01°19' E 103°43'0 0.0
2017-Apr-04 21:28N 01°19' E 103°43'0 0.0
2017-Apr-04 20:58N 01°19' E 103°43'0 0.0
2017-Apr-04 20:25N 01°19' E 103°43'0 0.0
2017-Apr-04 19:55N 01°19' E 103°43'0 0.0
2017-Apr-04 19:28N 01°19' E 103°43'0 0.0
2017-Apr-04 18:58N 01°19' E 103°43'0 0.0
2017-Apr-04 18:28N 01°19' E 103°43'0 0.0
2017-Apr-04 17:58N 01°19' E 103°43'0 0.0
2017-Apr-04 17:28N 01°19' E 103°43'0 0.0
2017-Apr-04 16:58N 01°19' E 103°43'0 0.0
2017-Apr-04 16:25N 01°19' E 103°43'0 0.0
2017-Apr-04 15:58N 01°19' E 103°43'0 0.0
2017-Apr-04 15:28N 01°19' E 103°43'0 0.0
2017-Apr-04 14:58N 01°19' E 103°43'0 0.0
2017-Apr-04 14:28N 01°19' E 103°43'0 0.0
2017-Apr-04 13:28N 01°19' E 103°43'0 0.0
2017-Apr-04 12:58N 01°19' E 103°43'0 0.0
2017-Apr-04 12:28N 01°19' E 103°43'0 0.0
2017-Apr-04 11:58N 01°19' E 103°43'0 0.0
2017-Apr-04 11:28N 01°19' E 103°43'0 0.0
2017-Apr-04 10:58N 01°19' E 103°43'0 0.0
2017-Apr-04 10:28N 01°19' E 103°43'0 0.0
2017-Apr-04 09:58N 01°19' E 103°43'0 0.0
2017-Apr-04 09:28N 01°19' E 103°43'0 0.0
2017-Apr-04 08:58N 01°19' E 103°43'0 0.0
2017-Apr-04 08:28N 01°19' E 103°43'0 0.1
2017-Apr-04 08:00N 01°18' E 103°43'1 2.2
2017-Apr-04 07:30N 01°18' E 103°44'3 6.5
2017-Apr-04 07:00N 01°16' E 103°46'5 9.7
2017-Apr-04 06:30N 01°12' E 103°50'5 9.3
2017-Apr-04 06:00N 01°14' E 103°54'1 1.5
2017-Apr-04 05:30N 01°14' E 103°55'2 3.4
2017-Apr-04 05:00N 01°14' E 103°57'  

Dump ship's entire track history